createdAt,value
2019-03-28T00:01:08.362Z,10.10
2019-03-28T00:03:36.897Z,11.10
2019-03-28T00:06:05.574Z,8.50
2019-03-28T00:08:34.025Z,12.30
2019-03-28T00:11:02.496Z,10.40
2019-03-28T00:13:31.011Z,12.53
2019-03-28T00:15:59.563Z,10.93
2019-03-28T00:18:28.251Z,12.03
2019-03-28T00:20:56.866Z,15.60
2019-03-28T00:23:27.259Z,12.60
2019-03-28T00:25:55.726Z,8.67
2019-03-28T00:28:24.179Z,15.50
2019-03-28T00:30:52.627Z,10.23
2019-03-28T00:33:21.103Z,10.43
2019-03-28T00:35:49.862Z,10.00
2019-03-28T00:38:18.339Z,11.60
2019-03-28T00:40:46.860Z,16.63
2019-03-28T00:43:15.414Z,10.97
2019-03-28T00:45:44.631Z,9.93
2019-03-28T00:48:13.378Z,10.73
2019-03-28T00:50:41.827Z,14.13
2019-03-28T00:53:10.274Z,10.77
2019-03-28T00:55:38.750Z,11.67
2019-03-28T00:58:07.527Z,13.10
2019-03-28T01:00:36.079Z,15.00
2019-03-28T01:03:04.838Z,10.00
2019-03-28T01:05:33.685Z,9.10
2019-03-28T01:08:02.131Z,8.87
2019-03-28T01:10:30.670Z,7.87
2019-03-28T01:12:59.196Z,11.77
2019-03-28T01:15:27.671Z,10.50
2019-03-28T01:17:56.203Z,8.60
2019-03-28T01:20:24.811Z,9.57
2019-03-28T01:22:53.263Z,7.43
2019-03-28T01:25:21.747Z,9.43
2019-03-28T01:27:50.411Z,9.87
2019-03-28T01:30:19.005Z,8.60
2019-03-28T01:32:47.526Z,16.70
2019-03-28T01:35:16.002Z,11.30
2019-03-28T01:37:44.451Z,9.13
2019-03-28T01:40:13.038Z,10.13
2019-03-28T01:42:41.831Z,11.30
2019-03-28T01:45:10.448Z,8.63
2019-03-28T01:47:39.058Z,9.60
2019-03-28T01:50:08.346Z,13.90
2019-03-28T01:52:36.899Z,9.63
2019-03-28T01:55:07.654Z,13.33
2019-03-28T01:57:36.201Z,11.33
2019-03-28T02:00:06.989Z,9.70
2019-03-28T02:02:35.462Z,11.57
2019-03-28T02:05:06.784Z,8.80
2019-03-28T02:07:35.331Z,11.17
2019-03-28T02:10:04.914Z,8.43
2019-03-28T02:12:33.363Z,12.50
2019-03-28T02:15:01.907Z,14.50
2019-03-28T02:17:30.627Z,11.07
2019-03-28T02:19:59.100Z,9.43
2019-03-28T02:22:27.551Z,13.90
2019-03-28T02:24:56.099Z,13.27
2019-03-28T02:27:24.827Z,10.00
2019-03-28T02:29:54.130Z,12.20
2019-03-28T02:32:22.752Z,11.93
2019-03-28T02:34:51.948Z,13.23
2019-03-28T02:37:20.394Z,10.67
2019-03-28T02:39:48.867Z,8.73
2019-03-28T02:42:17.686Z,11.20
2019-03-28T02:44:46.568Z,10.20
2019-03-28T02:47:15.163Z,10.00
2019-03-28T02:49:43.624Z,10.37
2019-03-28T02:52:12.163Z,9.20
2019-03-28T02:54:40.616Z,14.43
2019-03-28T02:57:09.235Z,9.70
2019-03-28T02:59:37.753Z,10.03
2019-03-28T03:02:06.816Z,13.40
2019-03-28T03:04:35.599Z,14.60
2019-03-28T03:07:04.456Z,12.07
2019-03-28T03:09:33.244Z,7.40
2019-03-28T03:12:01.963Z,11.80
2019-03-28T03:14:30.804Z,11.77
2019-03-28T03:16:59.331Z,8.07
2019-03-28T03:19:28.179Z,10.07
2019-03-28T03:21:56.745Z,10.43
2019-03-28T03:24:25.282Z,10.63
2019-03-28T03:26:54.185Z,7.53
2019-03-28T03:29:22.757Z,8.43
2019-03-28T03:31:51.350Z,8.90
2019-03-28T03:34:21.488Z,8.30
2019-03-28T03:36:50.024Z,13.73
2019-03-28T03:39:18.585Z,10.30
2019-03-28T03:41:47.188Z,10.97
2019-03-28T03:44:16.165Z,12.53
2019-03-28T03:46:44.986Z,14.60
2019-03-28T03:49:13.522Z,10.90
2019-03-28T03:51:46.349Z,12.50
2019-03-28T03:54:13.253Z,12.47
2019-03-28T03:56:41.817Z,14.20
2019-03-28T03:59:11.637Z,13.60
2019-03-28T04:01:40.313Z,14.43
2019-03-28T04:04:08.855Z,10.47
2019-03-28T04:06:37.384Z,9.63
2019-03-28T04:09:06.881Z,11.50
2019-03-28T04:11:35.478Z,11.57
2019-03-28T04:14:04.506Z,10.20
2019-03-28T04:16:33.033Z,11.87
2019-03-28T04:19:01.862Z,9.77
2019-03-28T04:21:30.391Z,13.10
2019-03-28T04:23:58.953Z,11.40
2019-03-28T04:26:27.551Z,13.33
2019-03-28T04:28:56.077Z,12.40
2019-03-28T04:31:24.631Z,18.43
2019-03-28T04:33:53.093Z,10.90
2019-03-28T04:36:21.647Z,9.50
2019-03-28T04:38:50.630Z,11.83
2019-03-28T04:41:19.345Z,12.50
2019-03-28T04:43:47.877Z,11.30
2019-03-28T04:46:16.440Z,11.90
2019-03-28T04:48:45.037Z,11.03
2019-03-28T04:51:13.592Z,11.83
2019-03-28T04:53:42.047Z,17.10
2019-03-28T04:56:10.600Z,12.43
2019-03-28T04:58:44.415Z,7.67
2019-03-28T05:01:09.264Z,93.80
2019-03-28T05:03:37.800Z,18.27
2019-03-28T05:06:06.348Z,9.17
2019-03-28T05:08:34.876Z,8.87
2019-03-28T05:11:03.368Z,17.07
2019-03-28T05:13:31.900Z,10.30
2019-03-28T05:16:00.428Z,12.30
2019-03-28T05:18:28.986Z,16.43
2019-03-28T05:20:57.523Z,16.93
2019-03-28T05:23:26.003Z,9.60
2019-03-28T05:25:54.756Z,13.57
2019-03-28T05:28:23.209Z,16.37
2019-03-28T05:30:51.696Z,14.80
2019-03-28T05:33:20.229Z,10.97
2019-03-28T05:35:48.784Z,12.77
2019-03-28T05:38:17.307Z,13.40
2019-03-28T05:40:45.771Z,14.40
2019-03-28T05:43:14.316Z,13.77
2019-03-28T05:45:42.776Z,18.40
2019-03-28T05:48:11.336Z,12.40
2019-03-28T05:50:40.188Z,14.97
2019-03-28T05:53:08.751Z,17.03
2019-03-28T05:55:37.276Z,14.30
2019-03-28T05:58:05.728Z,14.47
2019-03-28T06:00:34.213Z,14.47
2019-03-28T06:03:02.739Z,16.90
2019-03-28T06:05:31.295Z,14.30
2019-03-28T06:07:59.757Z,16.30
2019-03-28T06:10:28.216Z,15.47
2019-03-28T06:12:56.773Z,14.50
2019-03-28T06:15:25.616Z,16.70
2019-03-28T06:17:54.422Z,19.63
2019-03-28T06:20:23.076Z,13.10
2019-03-28T06:22:51.900Z,12.87
2019-03-28T06:25:20.769Z,21.40
2019-03-28T06:27:49.224Z,24.47
2019-03-28T06:30:18.409Z,15.57
2019-03-28T06:32:47.183Z,14.70
2019-03-28T06:35:15.743Z,17.77
2019-03-28T06:37:44.275Z,15.80
2019-03-28T06:40:12.979Z,19.83
2019-03-28T06:42:41.444Z,16.27
2019-03-28T06:45:10.437Z,22.77
2019-03-28T06:47:39.004Z,16.23
2019-03-28T06:50:08.180Z,23.07
2019-03-28T06:52:36.759Z,15.73
2019-03-28T06:55:05.923Z,19.70
2019-03-28T06:57:34.488Z,14.47
2019-03-28T07:00:04.690Z,14.93
2019-03-28T07:02:33.248Z,15.40
2019-03-28T07:05:01.780Z,15.50
2019-03-28T07:07:30.341Z,22.57
2019-03-28T07:10:02.187Z,57.43
2019-03-28T07:12:29.492Z,17.20
2019-03-28T07:14:59.614Z,14.53
2019-03-28T07:17:28.608Z,17.03
2019-03-28T07:19:57.163Z,14.20
2019-03-28T07:22:25.621Z,23.07
2019-03-28T07:24:54.183Z,22.10
2019-03-28T07:27:22.711Z,17.30
2019-03-28T07:29:51.565Z,19.43
2019-03-28T07:32:20.351Z,18.07
2019-03-28T07:34:48.950Z,22.80
2019-03-28T07:37:17.436Z,22.53
2019-03-28T07:39:46.264Z,22.67
2019-03-28T07:42:14.826Z,15.87
2019-03-28T07:44:43.361Z,21.70
2019-03-28T07:47:11.992Z,17.33
2019-03-28T07:49:40.450Z,20.87
2019-03-28T07:52:09.075Z,21.40
2019-03-28T07:54:37.612Z,18.03
2019-03-28T07:57:06.144Z,22.67
2019-03-28T07:59:34.704Z,23.37
2019-03-28T08:02:03.242Z,24.87
2019-03-28T08:04:31.904Z,22.97
2019-03-28T08:07:00.431Z,22.67
2019-03-28T08:09:36.420Z,20.63
2019-03-28T08:11:59.550Z,25.80
2019-03-28T08:14:28.490Z,19.07
2019-03-28T08:16:56.952Z,26.03
2019-03-28T08:19:25.416Z,24.00
2019-03-28T08:21:53.907Z,17.27
2019-03-28T08:24:22.435Z,19.30
2019-03-28T08:26:51.070Z,22.17
2019-03-28T08:29:19.609Z,24.27
2019-03-28T08:31:49.817Z,24.93
2019-03-28T08:34:18.710Z,23.90
2019-03-28T08:36:47.836Z,23.93
2019-03-28T08:39:17.116Z,24.33
2019-03-28T08:41:48.586Z,25.10
2019-03-28T08:44:16.192Z,26.43
2019-03-28T08:46:44.651Z,23.80
2019-03-28T08:49:13.216Z,23.87
2019-03-28T08:51:41.676Z,21.97
2019-03-28T08:54:10.166Z,23.70
2019-03-28T08:56:38.704Z,21.67
2019-03-28T08:59:07.197Z,26.37
2019-03-28T09:01:35.737Z,23.73
2019-03-28T09:04:04.296Z,20.40
2019-03-28T09:06:32.764Z,25.07
2019-03-28T09:09:01.553Z,21.67
2019-03-28T09:11:30.103Z,24.20
2019-03-28T09:13:58.661Z,25.07
2019-03-28T09:16:27.204Z,19.57
2019-03-28T09:18:55.671Z,17.53
2019-03-28T09:21:24.233Z,19.70
2019-03-28T09:23:52.696Z,20.97
2019-03-28T09:26:21.340Z,21.83
2019-03-28T09:28:49.869Z,21.23
2019-03-28T09:31:20.227Z,19.30
2019-03-28T09:33:48.691Z,20.03
2019-03-28T09:36:17.230Z,19.90
2019-03-28T09:38:45.792Z,20.30
2019-03-28T09:41:14.496Z,23.93
2019-03-28T09:43:54.661Z,26.47
2019-03-28T09:46:13.873Z,18.37
2019-03-28T09:48:42.440Z,25.57
2019-03-28T09:51:10.904Z,17.50
2019-03-28T09:53:39.396Z,22.90
2019-03-28T09:56:08.218Z,20.70
2019-03-28T09:58:36.754Z,16.53
2019-03-28T10:01:05.384Z,20.17
2019-03-28T10:03:34.002Z,16.67
2019-03-28T10:06:02.632Z,15.07
2019-03-28T10:08:31.100Z,14.40
2019-03-28T10:10:59.672Z,15.57
2019-03-28T10:13:28.216Z,13.80
2019-03-28T10:15:57.467Z,14.43
2019-03-28T10:18:29.729Z,16.03
2019-03-28T10:20:56.663Z,12.43
2019-03-28T10:23:25.224Z,11.67
2019-03-28T10:25:53.824Z,11.57
2019-03-28T10:28:22.316Z,12.07
2019-03-28T10:30:50.927Z,12.73
2019-03-28T10:33:19.829Z,14.77
2019-03-28T10:35:48.477Z,13.57
2019-03-28T10:38:17.017Z,14.23
2019-03-28T10:40:45.639Z,11.03
2019-03-28T10:43:14.482Z,12.27
2019-03-28T10:45:43.106Z,10.70
2019-03-28T10:48:11.707Z,11.67
2019-03-28T10:50:43.855Z,10.17
2019-03-28T10:53:11.060Z,11.30
2019-03-28T10:55:39.729Z,10.23
2019-03-28T10:58:18.361Z,10.10
2019-03-28T11:00:38.909Z,9.07
2019-03-28T11:03:07.710Z,9.17
2019-03-28T11:05:36.384Z,8.37
2019-03-28T11:08:04.868Z,8.60
2019-03-28T11:10:33.403Z,8.70
2019-03-28T11:13:02.292Z,8.37
2019-03-28T11:15:31.285Z,9.10
2019-03-28T11:17:59.826Z,7.87
2019-03-28T11:20:28.649Z,8.60
2019-03-28T11:22:57.109Z,7.17
2019-03-28T11:25:25.596Z,7.33
2019-03-28T11:27:54.200Z,7.57
2019-03-28T11:30:23.192Z,7.90
2019-03-28T11:32:51.819Z,7.43
2019-03-28T11:35:20.375Z,8.53
2019-03-28T11:37:48.908Z,8.60
2019-03-28T11:40:17.684Z,9.83
2019-03-28T11:42:46.246Z,9.13
2019-03-28T11:45:14.940Z,9.47
2019-03-28T11:47:43.820Z,10.57
2019-03-28T11:50:13.098Z,13.30
2019-03-28T11:52:42.826Z,9.10
2019-03-28T11:55:12.024Z,10.50
2019-03-28T11:57:40.512Z,9.80
2019-03-28T12:00:12.259Z,9.40
2019-03-28T12:02:41.091Z,11.93
2019-03-28T12:05:10.292Z,9.87
2019-03-28T12:07:38.824Z,10.63
2019-03-28T12:10:09.223Z,12.97
2019-03-28T12:12:37.686Z,11.93
2019-03-28T12:15:08.084Z,9.97
2019-03-28T12:17:36.695Z,9.97
2019-03-28T12:20:07.074Z,11.70
2019-03-28T12:22:35.703Z,10.20
2019-03-28T12:25:05.871Z,9.63
2019-03-28T12:27:34.431Z,10.00
2019-03-28T12:30:03.569Z,10.20
2019-03-28T12:32:32.200Z,10.60
2019-03-28T12:35:00.739Z,9.90
2019-03-28T12:37:29.306Z,10.90
2019-03-28T12:39:59.972Z,9.40
2019-03-28T12:42:28.020Z,10.53
2019-03-28T12:44:57.617Z,9.70
2019-03-28T12:47:27.130Z,8.17
2019-03-28T12:49:55.633Z,10.90
2019-03-28T12:52:24.092Z,9.43
2019-03-28T12:54:52.964Z,8.83
2019-03-28T12:57:21.530Z,10.50
2019-03-28T12:59:53.361Z,10.97
2019-03-28T13:02:29.892Z,9.30
2019-03-28T13:04:50.902Z,11.40
2019-03-28T13:07:19.429Z,10.43
2019-03-28T13:09:47.908Z,9.13
2019-03-28T13:12:16.840Z,9.97
2019-03-28T13:14:45.368Z,8.63
2019-03-28T13:17:13.855Z,11.73
2019-03-28T13:19:42.392Z,8.37
2019-03-28T13:22:10.956Z,9.50
2019-03-28T13:24:39.479Z,9.00
2019-03-28T13:27:08.084Z,10.07
2019-03-28T13:29:36.575Z,8.67
2019-03-28T13:32:05.181Z,8.67
2019-03-28T13:34:33.993Z,8.87
2019-03-28T13:37:02.476Z,8.27
2019-03-28T13:39:31.366Z,7.30
2019-03-28T13:42:00.025Z,8.10
2019-03-28T13:44:30.251Z,8.30
2019-03-28T13:46:58.740Z,7.67
2019-03-28T13:49:27.230Z,7.73
2019-03-28T13:51:55.692Z,8.37
2019-03-28T13:54:24.251Z,8.70
2019-03-28T13:56:52.708Z,7.07
2019-03-28T13:59:21.240Z,9.17
2019-03-28T14:01:50.157Z,9.07
2019-03-28T14:04:18.688Z,7.40
2019-03-28T14:06:47.148Z,7.30
2019-03-28T14:09:16.008Z,11.07
2019-03-28T14:11:44.546Z,7.70
2019-03-28T14:14:13.071Z,6.57
2019-03-28T14:16:41.555Z,5.87
2019-03-28T14:19:10.017Z,6.50
2019-03-28T14:21:38.644Z,6.60
2019-03-28T14:24:07.180Z,6.83
2019-03-28T14:26:37.583Z,6.10
2019-03-28T14:29:07.134Z,5.83
2019-03-28T14:31:35.656Z,7.57
2019-03-28T14:34:04.293Z,5.70
2019-03-28T14:36:32.820Z,5.90
2019-03-28T14:39:01.304Z,6.57
2019-03-28T14:41:29.769Z,6.27
2019-03-28T14:43:58.332Z,6.70
2019-03-28T14:46:26.961Z,6.20
2019-03-28T14:48:55.553Z,7.27
2019-03-28T14:51:24.088Z,6.37
2019-03-28T14:53:52.771Z,6.70
2019-03-28T14:56:21.472Z,6.30
2019-03-28T14:58:52.837Z,6.03
2019-03-28T15:01:21.375Z,5.47
2019-03-28T15:03:49.904Z,5.73
2019-03-28T15:06:18.388Z,7.67
2019-03-28T15:08:46.924Z,5.07
2019-03-28T15:11:15.424Z,11.90
2019-03-28T15:13:43.948Z,5.07
2019-03-28T15:16:12.789Z,5.43
2019-03-28T15:18:41.320Z,6.10
2019-03-28T15:21:09.804Z,5.07
2019-03-28T15:23:38.412Z,5.00
2019-03-28T15:26:07.096Z,4.80
2019-03-28T15:28:35.585Z,5.80
2019-03-28T15:31:04.284Z,5.10
2019-03-28T15:33:39.364Z,5.47
2019-03-28T15:36:03.300Z,5.47
2019-03-28T15:38:31.756Z,5.33
2019-03-28T15:41:00.250Z,6.27
2019-03-28T15:43:28.841Z,5.10
2019-03-28T15:45:57.340Z,4.70
2019-03-28T15:48:25.796Z,5.07
2019-03-28T15:50:54.353Z,5.90
2019-03-28T15:53:23.199Z,8.67
2019-03-28T15:55:52.339Z,10.07
2019-03-28T15:58:23.512Z,5.20
2019-03-28T16:00:51.076Z,5.37
2019-03-28T16:03:19.618Z,9.53
2019-03-28T16:05:58.271Z,5.23
2019-03-28T16:08:18.366Z,6.03
2019-03-28T16:10:46.912Z,5.27
2019-03-28T16:13:15.371Z,5.97
2019-03-28T16:15:43.997Z,4.70
2019-03-28T16:18:13.679Z,4.30
2019-03-28T16:20:42.396Z,5.50
2019-03-28T16:23:11.230Z,5.23
2019-03-28T16:25:39.793Z,5.17
2019-03-28T16:28:08.324Z,5.50
2019-03-28T16:30:38.341Z,5.00
2019-03-28T16:33:07.332Z,4.60
2019-03-28T16:35:35.897Z,5.23
2019-03-28T16:38:04.424Z,4.50
2019-03-28T16:40:32.989Z,4.73
2019-03-28T16:43:01.597Z,5.23
2019-03-28T16:45:30.616Z,4.50
2019-03-28T16:47:59.150Z,5.70
2019-03-28T16:50:27.752Z,4.90
2019-03-28T16:52:56.300Z,4.30
2019-03-28T16:55:26.488Z,4.27
2019-03-28T16:57:55.109Z,4.70
2019-03-28T17:00:26.724Z,7.07
2019-03-28T17:02:55.280Z,5.23
2019-03-28T17:05:23.735Z,4.73
2019-03-28T17:07:52.448Z,5.47
2019-03-28T17:10:40.452Z,12.07
2019-03-28T17:13:08.936Z,15.27
2019-03-28T17:15:37.400Z,6.40
2019-03-28T17:18:06.112Z,7.20
2019-03-28T17:20:34.636Z,5.33
2019-03-28T17:23:03.199Z,5.30
2019-03-28T17:25:31.732Z,5.77
2019-03-28T17:28:00.292Z,5.70
2019-03-28T17:30:28.837Z,5.80
2019-03-28T17:32:57.461Z,6.00
2019-03-28T17:35:25.992Z,5.23
2019-03-28T17:37:54.552Z,5.83
2019-03-28T17:40:23.084Z,5.60
2019-03-28T17:42:51.578Z,5.93
2019-03-28T17:45:20.179Z,9.20
2019-03-28T17:47:48.748Z,5.40
2019-03-28T17:50:17.630Z,6.20
2019-03-28T17:52:46.409Z,5.57
2019-03-28T17:55:15.012Z,7.80
2019-03-28T17:57:43.837Z,8.00
2019-03-28T18:00:13.480Z,7.03
2019-03-28T18:02:42.525Z,5.73
2019-03-28T18:05:15.249Z,5.50
2019-03-28T18:07:41.502Z,6.13
2019-03-28T18:10:10.728Z,4.97
2019-03-28T18:12:39.718Z,5.50
2019-03-28T18:15:08.956Z,5.20
2019-03-28T18:17:37.516Z,6.20
2019-03-28T18:20:06.888Z,5.53
2019-03-28T18:22:35.512Z,8.93
2019-03-28T18:25:06.200Z,5.10
2019-03-28T18:27:34.821Z,6.87
2019-03-28T18:30:05.535Z,5.67
2019-03-28T18:32:34.423Z,6.67
2019-03-28T18:35:05.779Z,6.70
2019-03-28T18:37:33.561Z,5.60
2019-03-28T18:40:04.367Z,5.30
2019-03-28T18:42:32.845Z,6.70
2019-03-28T18:45:01.409Z,4.90
2019-03-28T18:47:29.945Z,6.43
2019-03-28T18:49:58.504Z,4.63
2019-03-28T18:52:26.959Z,4.37
2019-03-28T18:54:55.515Z,3.97
2019-03-28T18:57:24.037Z,4.10
2019-03-28T18:59:52.792Z,4.57
2019-03-28T19:02:21.327Z,4.30
2019-03-28T19:04:49.881Z,4.80
2019-03-28T19:07:18.417Z,4.10
2019-03-28T19:09:46.968Z,3.50
2019-03-28T19:12:15.532Z,3.47
2019-03-28T19:14:46.177Z,7.60
2019-03-28T19:17:14.268Z,5.77
2019-03-28T19:19:43.730Z,24.13
2019-03-28T19:22:12.441Z,4.53
2019-03-28T19:24:41.000Z,4.03
2019-03-28T19:27:09.536Z,4.07
2019-03-28T19:29:38.137Z,4.10
2019-03-28T19:32:06.627Z,5.73
2019-03-28T19:34:35.155Z,4.20
2019-03-28T19:37:03.871Z,4.50
2019-03-28T19:39:36.587Z,4.53
2019-03-28T19:42:05.323Z,5.37
2019-03-28T19:44:33.924Z,4.73
2019-03-28T19:47:02.556Z,5.80
2019-03-28T19:49:31.092Z,4.53
2019-03-28T19:52:00.118Z,4.40
2019-03-28T19:54:28.916Z,4.37
2019-03-28T19:56:57.753Z,4.80
2019-03-28T19:59:26.283Z,4.00
2019-03-28T20:01:54.772Z,7.33
2019-03-28T20:04:23.303Z,4.13
2019-03-28T20:06:51.787Z,4.03
2019-03-28T20:09:20.255Z,3.80
2019-03-28T20:11:48.892Z,4.17
2019-03-28T20:14:17.637Z,4.60
2019-03-28T20:16:46.176Z,4.00
2019-03-28T20:19:17.709Z,3.90
2019-03-28T20:21:45.189Z,4.20
2019-03-28T20:24:14.860Z,3.57
2019-03-28T20:26:43.580Z,3.83
2019-03-28T20:29:12.069Z,3.40
2019-03-28T20:31:40.604Z,3.60
2019-03-28T20:34:09.160Z,3.47
2019-03-28T20:36:42.371Z,3.60
2019-03-28T20:39:09.913Z,3.60
2019-03-28T20:41:38.521Z,7.53
2019-03-28T20:44:07.185Z,4.53
2019-03-28T20:46:35.861Z,3.50
2019-03-28T20:49:04.559Z,4.10
2019-03-28T20:51:33.093Z,3.57
2019-03-28T20:54:01.649Z,4.20
2019-03-28T20:56:30.445Z,4.40
2019-03-28T20:58:59.071Z,5.10
2019-03-28T21:01:27.532Z,5.63
2019-03-28T21:03:56.256Z,5.10
2019-03-28T21:06:25.064Z,4.43
2019-03-28T21:08:53.615Z,5.07
2019-03-28T21:11:22.082Z,4.40
2019-03-28T21:13:50.613Z,4.73
2019-03-28T21:16:19.105Z,4.80
2019-03-28T21:18:48.012Z,4.80
2019-03-28T21:21:16.607Z,5.17
2019-03-28T21:23:45.168Z,4.60
2019-03-28T21:26:15.024Z,7.53
2019-03-28T21:28:47.473Z,4.97
2019-03-28T21:31:14.093Z,5.70
2019-03-28T21:33:42.628Z,5.50
2019-03-28T21:36:11.484Z,5.73
2019-03-28T21:38:40.012Z,6.07
2019-03-28T21:41:08.577Z,6.20
2019-03-28T21:43:37.112Z,5.33
2019-03-28T21:46:06.229Z,6.50
2019-03-28T21:48:35.420Z,6.40
2019-03-28T21:51:04.299Z,6.37
2019-03-28T21:53:33.208Z,7.03
2019-03-28T21:56:02.004Z,6.67
2019-03-28T21:58:30.773Z,7.57
2019-03-28T22:00:59.466Z,7.30
2019-03-28T22:03:27.996Z,8.00
2019-03-28T22:05:57.064Z,8.50
2019-03-28T22:08:25.793Z,8.53
2019-03-28T22:10:54.355Z,7.90
2019-03-28T22:13:22.890Z,7.80
2019-03-28T22:15:51.453Z,7.77
2019-03-28T22:18:19.986Z,7.60
2019-03-28T22:20:48.519Z,7.00
2019-03-28T22:23:17.082Z,6.90
2019-03-28T22:25:45.888Z,6.73
2019-03-28T22:28:14.686Z,6.37
2019-03-28T22:30:43.288Z,7.00
2019-03-28T22:33:11.843Z,6.70
2019-03-28T22:35:40.372Z,9.53
2019-03-28T22:38:08.932Z,6.83
2019-03-28T22:40:37.803Z,6.90
2019-03-28T22:43:06.982Z,6.97
2019-03-28T22:45:35.801Z,5.97
2019-03-28T22:48:10.807Z,6.73
2019-03-28T22:50:34.788Z,7.43
2019-03-28T22:53:03.271Z,7.13
2019-03-28T22:55:32.176Z,10.90
2019-03-28T22:58:00.727Z,6.63
2019-03-28T23:00:40.030Z,6.87
2019-03-28T23:03:08.656Z,10.13
2019-03-28T23:05:37.669Z,9.20
2019-03-28T23:08:06.899Z,6.47
2019-03-28T23:10:35.479Z,8.10
2019-03-28T23:13:04.088Z,7.47
2019-03-28T23:15:32.644Z,6.93
2019-03-28T23:18:01.172Z,7.80
2019-03-28T23:20:29.726Z,8.70
2019-03-28T23:22:58.187Z,8.70
2019-03-28T23:25:26.740Z,7.83
2019-03-28T23:27:55.198Z,7.97
2019-03-28T23:30:23.760Z,10.07
2019-03-28T23:32:52.284Z,7.73
2019-03-28T23:35:21.054Z,8.00
2019-03-28T23:37:49.873Z,7.53
2019-03-28T23:40:18.431Z,8.63
2019-03-28T23:42:46.965Z,7.67
2019-03-28T23:45:15.640Z,9.37
2019-03-28T23:47:44.200Z,9.80
2019-03-28T23:50:12.895Z,8.80
2019-03-28T23:52:42.158Z,8.80
2019-03-28T23:55:11.360Z,9.00
2019-03-28T23:57:39.922Z,8.17
